sensor_id;sensor_type;location;lat;lon;timestamp;P1;durP1;ratioP1;P2;durP2;ratioP2
58878;SDS011;44660;42.664;23.266;2022-08-24T00:00:07;15.52;;;10.35;;
58878;SDS011;44660;42.664;23.266;2022-08-24T00:02:35;12.77;;;10.52;;
58878;SDS011;44660;42.664;23.266;2022-08-24T00:05:01;14.57;;;10.63;;
58878;SDS011;44660;42.664;23.266;2022-08-24T00:07:27;15.23;;;10.80;;
58878;SDS011;44660;42.664;23.266;2022-08-24T00:09:53;17.20;;;11.00;;
58878;SDS011;44660;42.664;23.266;2022-08-24T00:12:18;13.43;;;11.00;;
58878;SDS011;44660;42.664;23.266;2022-08-24T00:14:43;14.43;;;11.25;;
58878;SDS011;44660;42.664;23.266;2022-08-24T00:17:09;14.50;;;11.00;;
58878;SDS011;44660;42.664;23.266;2022-08-24T00:19:35;16.98;;;11.88;;
58878;SDS011;44660;42.664;23.266;2022-08-24T00:22:01;18.73;;;12.20;;
58878;SDS011;44660;42.664;23.266;2022-08-24T00:24:26;17.10;;;11.38;;
58878;SDS011;44660;42.664;23.266;2022-08-24T00:26:53;18.70;;;12.15;;
58878;SDS011;44660;42.664;23.266;2022-08-24T00:29:19;19.80;;;12.50;;
58878;SDS011;44660;42.664;23.266;2022-08-24T00:31:45;18.70;;;12.50;;
58878;SDS011;44660;42.664;23.266;2022-08-24T00:34:12;16.88;;;12.82;;
58878;SDS011;44660;42.664;23.266;2022-08-24T00:36:38;18.33;;;12.75;;
58878;SDS011;44660;42.664;23.266;2022-08-24T00:39:05;20.92;;;14.00;;
58878;SDS011;44660;42.664;23.266;2022-08-24T00:41:32;20.17;;;13.32;;
58878;SDS011;44660;42.664;23.266;2022-08-24T00:44:02;20.45;;;13.80;;
58878;SDS011;44660;42.664;23.266;2022-08-24T00:52:23;26.83;;;16.05;;
58878;SDS011;44660;42.664;23.266;2022-08-24T00:54:49;27.90;;;16.00;;
58878;SDS011;44660;42.664;23.266;2022-08-24T00:57:21;21.95;;;15.48;;
58878;SDS011;44660;42.664;23.266;2022-08-24T00:59:57;24.75;;;16.17;;
58878;SDS011;44660;42.664;23.266;2022-08-24T01:02:26;22.98;;;16.00;;
58878;SDS011;44660;42.664;23.266;2022-08-24T01:04:57;25.23;;;16.17;;
58878;SDS011;44660;42.664;23.266;2022-08-24T01:09:52;24.50;;;17.15;;
58878;SDS011;44660;42.664;23.266;2022-08-24T01:12:20;27.35;;;18.27;;
58878;SDS011;44660;42.664;23.266;2022-08-24T01:14:46;27.00;;;18.80;;
58878;SDS011;44660;42.664;23.266;2022-08-24T01:17:12;29.08;;;17.60;;
58878;SDS011;44660;42.664;23.266;2022-08-24T01:19:57;32.13;;;18.42;;
58878;SDS011;44660;42.664;23.266;2022-08-24T01:22:33;25.95;;;17.58;;
58878;SDS011;44660;42.664;23.266;2022-08-24T01:25:05;25.45;;;17.73;;
58878;SDS011;44660;42.664;23.266;2022-08-24T01:27:32;27.98;;;18.23;;
58878;SDS011;44660;42.664;23.266;2022-08-24T01:29:59;24.35;;;18.42;;
58878;SDS011;44660;42.664;23.266;2022-08-24T01:32:26;29.35;;;19.40;;
58878;SDS011;44660;42.664;23.266;2022-08-24T01:34:52;28.27;;;19.13;;
58878;SDS011;44660;42.664;23.266;2022-08-24T01:37:19;29.48;;;19.33;;
58878;SDS011;44660;42.664;23.266;2022-08-24T01:39:45;29.50;;;19.23;;
58878;SDS011;44660;42.664;23.266;2022-08-24T01:42:12;31.60;;;20.65;;
58878;SDS011;44660;42.664;23.266;2022-08-24T01:44:42;28.30;;;20.00;;
58878;SDS011;44660;42.664;23.266;2022-08-24T01:47:10;27.67;;;18.85;;
58878;SDS011;44660;42.664;23.266;2022-08-24T01:49:38;26.00;;;17.60;;
58878;SDS011;44660;42.664;23.266;2022-08-24T01:52:07;28.33;;;18.98;;
58878;SDS011;44660;42.664;23.266;2022-08-24T01:54:34;26.27;;;18.75;;
58878;SDS011;44660;42.664;23.266;2022-08-24T01:56:59;26.83;;;18.20;;
58878;SDS011;44660;42.664;23.266;2022-08-24T01:59:25;25.20;;;18.75;;
58878;SDS011;44660;42.664;23.266;2022-08-24T02:01:52;25.38;;;18.88;;
58878;SDS011;44660;42.664;23.266;2022-08-24T02:04:22;27.58;;;18.30;;
58878;SDS011;44660;42.664;23.266;2022-08-24T02:06:47;24.65;;;17.58;;
58878;SDS011;44660;42.664;23.266;2022-08-24T02:09:13;24.00;;;17.23;;
58878;SDS011;44660;42.664;23.266;2022-08-24T02:11:39;26.02;;;18.05;;
58878;SDS011;44660;42.664;23.266;2022-08-24T02:14:05;23.63;;;16.85;;
58878;SDS011;44660;42.664;23.266;2022-08-24T02:16:31;22.63;;;17.05;;
58878;SDS011;44660;42.664;23.266;2022-08-24T02:18:56;22.38;;;16.25;;
58878;SDS011;44660;42.664;23.266;2022-08-24T02:21:22;23.30;;;16.42;;
58878;SDS011;44660;42.664;23.266;2022-08-24T02:23:48;24.17;;;17.52;;
58878;SDS011;44660;42.664;23.266;2022-08-24T02:26:14;25.40;;;17.35;;
58878;SDS011;44660;42.664;23.266;2022-08-24T02:28:39;26.95;;;18.10;;
58878;SDS011;44660;42.664;23.266;2022-08-24T02:31:06;29.90;;;18.77;;
58878;SDS011;44660;42.664;23.266;2022-08-24T02:33:33;24.50;;;17.83;;
58878;SDS011;44660;42.664;23.266;2022-08-24T02:35:59;27.20;;;18.92;;
58878;SDS011;44660;42.664;23.266;2022-08-24T02:38:25;28.58;;;18.90;;
58878;SDS011;44660;42.664;23.266;2022-08-24T02:40:51;30.27;;;20.90;;
58878;SDS011;44660;42.664;23.266;2022-08-24T02:43:16;28.98;;;19.95;;
58878;SDS011;44660;42.664;23.266;2022-08-24T02:45:43;30.70;;;21.70;;
58878;SDS011;44660;42.664;23.266;2022-08-24T02:48:10;29.67;;;20.00;;
58878;SDS011;44660;42.664;23.266;2022-08-24T02:50:40;31.10;;;21.15;;
58878;SDS011;44660;42.664;23.266;2022-08-24T02:53:08;32.35;;;21.17;;
58878;SDS011;44660;42.664;23.266;2022-08-24T02:55:35;30.98;;;20.67;;
58878;SDS011;44660;42.664;23.266;2022-08-24T02:58:03;29.33;;;20.77;;
58878;SDS011;44660;42.664;23.266;2022-08-24T03:00:29;32.72;;;20.70;;
58878;SDS011;44660;42.664;23.266;2022-08-24T03:02:54;30.58;;;21.33;;
58878;SDS011;44660;42.664;23.266;2022-08-24T03:05:20;31.23;;;20.85;;
58878;SDS011;44660;42.664;23.266;2022-08-24T03:07:46;29.38;;;20.02;;
58878;SDS011;44660;42.664;23.266;2022-08-24T03:10:12;29.75;;;20.42;;
58878;SDS011;44660;42.664;23.266;2022-08-24T03:12:38;29.33;;;20.70;;
58878;SDS011;44660;42.664;23.266;2022-08-24T03:15:05;26.85;;;19.98;;
58878;SDS011;44660;42.664;23.266;2022-08-24T03:17:33;33.33;;;21.25;;
58878;SDS011;44660;42.664;23.266;2022-08-24T03:19:59;33.42;;;20.30;;
58878;SDS011;44660;42.664;23.266;2022-08-24T03:22:26;32.10;;;20.63;;
58878;SDS011;44660;42.664;23.266;2022-08-24T03:24:52;32.90;;;21.15;;
58878;SDS011;44660;42.664;23.266;2022-08-24T03:27:17;30.55;;;19.42;;
58878;SDS011;44660;42.664;23.266;2022-08-24T03:29:43;32.65;;;20.42;;
58878;SDS011;44660;42.664;23.266;2022-08-24T03:32:09;29.08;;;19.45;;
58878;SDS011;44660;42.664;23.266;2022-08-24T03:34:35;28.15;;;19.60;;
58878;SDS011;44660;42.664;23.266;2022-08-24T03:37:00;30.98;;;20.60;;
58878;SDS011;44660;42.664;23.266;2022-08-24T03:39:26;33.17;;;21.00;;
58878;SDS011;44660;42.664;23.266;2022-08-24T03:41:52;32.40;;;21.52;;
58878;SDS011;44660;42.664;23.266;2022-08-24T03:44:17;31.50;;;20.95;;
58878;SDS011;44660;42.664;23.266;2022-08-24T03:46:43;33.05;;;21.48;;
58878;SDS011;44660;42.664;23.266;2022-08-24T03:49:09;31.65;;;22.33;;
58878;SDS011;44660;42.664;23.266;2022-08-24T03:51:35;36.88;;;24.30;;
58878;SDS011;44660;42.664;23.266;2022-08-24T03:54:02;29.73;;;21.33;;
58878;SDS011;44660;42.664;23.266;2022-08-24T03:56:29;31.55;;;21.10;;
58878;SDS011;44660;42.664;23.266;2022-08-24T03:58:54;29.58;;;22.00;;
58878;SDS011;44660;42.664;23.266;2022-08-24T04:01:20;25.55;;;16.92;;
58878;SDS011;44660;42.664;23.266;2022-08-24T04:03:47;24.85;;;17.63;;
58878;SDS011;44660;42.664;23.266;2022-08-24T04:06:13;26.17;;;17.02;;
58878;SDS011;44660;42.664;23.266;2022-08-24T04:08:41;19.27;;;14.00;;
58878;SDS011;44660;42.664;23.266;2022-08-24T04:11:15;23.25;;;13.27;;
58878;SDS011;44660;42.664;23.266;2022-08-24T04:13:43;23.63;;;14.85;;
58878;SDS011;44660;42.664;23.266;2022-08-24T04:18:39;13.35;;;9.80;;
58878;SDS011;44660;42.664;23.266;2022-08-24T04:21:05;17.20;;;11.07;;
58878;SDS011;44660;42.664;23.266;2022-08-24T04:23:31;14.68;;;10.65;;
58878;SDS011;44660;42.664;23.266;2022-08-24T04:26:01;15.55;;;11.00;;
58878;SDS011;44660;42.664;23.266;2022-08-24T04:28:28;13.68;;;9.60;;
58878;SDS011;44660;42.664;23.266;2022-08-24T04:30:54;12.80;;;8.77;;
58878;SDS011;44660;42.664;23.266;2022-08-24T04:33:21;13.32;;;9.38;;
58878;SDS011;44660;42.664;23.266;2022-08-24T04:35:47;11.90;;;7.90;;
58878;SDS011;44660;42.664;23.266;2022-08-24T04:38:17;10.77;;;8.52;;
58878;SDS011;44660;42.664;23.266;2022-08-24T04:40:43;12.20;;;8.77;;
58878;SDS011;44660;42.664;23.266;2022-08-24T04:43:10;13.23;;;8.15;;
58878;SDS011;44660;42.664;23.266;2022-08-24T04:45:40;12.68;;;8.25;;
58878;SDS011;44660;42.664;23.266;2022-08-24T04:48:08;14.70;;;8.65;;
58878;SDS011;44660;42.664;23.266;2022-08-24T04:50:34;14.95;;;8.15;;
58878;SDS011;44660;42.664;23.266;2022-08-24T04:53:01;9.02;;;7.15;;
58878;SDS011;44660;42.664;23.266;2022-08-24T04:55:28;8.80;;;6.43;;
58878;SDS011;44660;42.664;23.266;2022-08-24T04:57:53;10.88;;;6.13;;
58878;SDS011;44660;42.664;23.266;2022-08-24T05:00:19;8.90;;;5.72;;
58878;SDS011;44660;42.664;23.266;2022-08-24T05:02:45;6.88;;;6.15;;
58878;SDS011;44660;42.664;23.266;2022-08-24T05:05:11;7.25;;;6.10;;
58878;SDS011;44660;42.664;23.266;2022-08-24T05:07:37;7.20;;;6.00;;
58878;SDS011;44660;42.664;23.266;2022-08-24T05:10:03;5.55;;;4.95;;
58878;SDS011;44660;42.664;23.266;2022-08-24T05:12:30;10.32;;;7.20;;
58878;SDS011;44660;42.664;23.266;2022-08-24T05:14:56;6.75;;;5.53;;
58878;SDS011;44660;42.664;23.266;2022-08-24T05:17:22;11.40;;;9.50;;
58878;SDS011;44660;42.664;23.266;2022-08-24T05:19:48;10.25;;;8.75;;
58878;SDS011;44660;42.664;23.266;2022-08-24T05:22:14;8.32;;;6.65;;
58878;SDS011;44660;42.664;23.266;2022-08-24T05:24:40;6.97;;;6.00;;
58878;SDS011;44660;42.664;23.266;2022-08-24T05:27:05;7.72;;;6.20;;
58878;SDS011;44660;42.664;23.266;2022-08-24T05:29:31;7.38;;;6.18;;
58878;SDS011;44660;42.664;23.266;2022-08-24T05:31:58;7.95;;;5.43;;
58878;SDS011;44660;42.664;23.266;2022-08-24T05:34:24;8.00;;;5.65;;
58878;SDS011;44660;42.664;23.266;2022-08-24T05:36:50;7.40;;;5.70;;
58878;SDS011;44660;42.664;23.266;2022-08-24T05:39:16;8.13;;;5.45;;
58878;SDS011;44660;42.664;23.266;2022-08-24T05:41:42;8.27;;;5.32;;
58878;SDS011;44660;42.664;23.266;2022-08-24T05:44:09;6.43;;;5.75;;
58878;SDS011;44660;42.664;23.266;2022-08-24T05:46:36;8.98;;;6.05;;
58878;SDS011;44660;42.664;23.266;2022-08-24T05:49:02;7.15;;;5.80;;
58878;SDS011;44660;42.664;23.266;2022-08-24T05:51:28;7.95;;;6.13;;
58878;SDS011;44660;42.664;23.266;2022-08-24T05:53:54;8.05;;;5.93;;
58878;SDS011;44660;42.664;23.266;2022-08-24T05:56:20;6.63;;;5.32;;
58878;SDS011;44660;42.664;23.266;2022-08-24T05:58:46;8.13;;;5.30;;
58878;SDS011;44660;42.664;23.266;2022-08-24T06:01:13;7.38;;;5.15;;
58878;SDS011;44660;42.664;23.266;2022-08-24T06:03:42;8.07;;;5.37;;
58878;SDS011;44660;42.664;23.266;2022-08-24T06:06:08;7.38;;;5.60;;
58878;SDS011;44660;42.664;23.266;2022-08-24T06:08:35;8.10;;;6.22;;
58878;SDS011;44660;42.664;23.266;2022-08-24T06:11:01;7.82;;;5.45;;
58878;SDS011;44660;42.664;23.266;2022-08-24T06:13:27;6.82;;;5.43;;
58878;SDS011;44660;42.664;23.266;2022-08-24T06:16:07;8.18;;;5.50;;
58878;SDS011;44660;42.664;23.266;2022-08-24T06:18:35;8.75;;;5.75;;
58878;SDS011;44660;42.664;23.266;2022-08-24T06:21:05;8.32;;;5.50;;
58878;SDS011;44660;42.664;23.266;2022-08-24T06:23:36;7.07;;;5.88;;
58878;SDS011;44660;42.664;23.266;2022-08-24T06:26:03;10.80;;;5.20;;
58878;SDS011;44660;42.664;23.266;2022-08-24T06:28:48;7.90;;;5.78;;
58878;SDS011;44660;42.664;23.266;2022-08-24T06:31:16;8.73;;;5.03;;
58878;SDS011;44660;42.664;23.266;2022-08-24T06:33:43;6.57;;;4.85;;
58878;SDS011;44660;42.664;23.266;2022-08-24T06:36:08;6.22;;;5.20;;
58878;SDS011;44660;42.664;23.266;2022-08-24T06:38:34;8.23;;;4.72;;
58878;SDS011;44660;42.664;23.266;2022-08-24T06:41:00;7.72;;;5.07;;
58878;SDS011;44660;42.664;23.266;2022-08-24T06:43:26;9.20;;;5.07;;
58878;SDS011;44660;42.664;23.266;2022-08-24T06:45:52;6.80;;;5.35;;
58878;SDS011;44660;42.664;23.266;2022-08-24T06:48:19;8.90;;;4.85;;
58878;SDS011;44660;42.664;23.266;2022-08-24T06:50:44;12.02;;;4.97;;
58878;SDS011;44660;42.664;23.266;2022-08-24T06:53:11;6.90;;;5.15;;
58878;SDS011;44660;42.664;23.266;2022-08-24T06:55:43;7.70;;;5.32;;
58878;SDS011;44660;42.664;23.266;2022-08-24T06:58:13;7.07;;;5.07;;
58878;SDS011;44660;42.664;23.266;2022-08-24T07:00:38;6.72;;;5.18;;
58878;SDS011;44660;42.664;23.266;2022-08-24T07:03:04;5.97;;;5.13;;
58878;SDS011;44660;42.664;23.266;2022-08-24T07:05:30;5.82;;;5.22;;
58878;SDS011;44660;42.664;23.266;2022-08-24T07:07:55;5.78;;;5.10;;
58878;SDS011;44660;42.664;23.266;2022-08-24T07:10:23;6.82;;;5.03;;
58878;SDS011;44660;42.664;23.266;2022-08-24T07:12:49;16.60;;;5.43;;
58878;SDS011;44660;42.664;23.266;2022-08-24T07:15:14;7.32;;;5.43;;
58878;SDS011;44660;42.664;23.266;2022-08-24T07:17:40;7.50;;;5.43;;
58878;SDS011;44660;42.664;23.266;2022-08-24T07:20:05;8.55;;;4.75;;
58878;SDS011;44660;42.664;23.266;2022-08-24T07:22:33;7.18;;;4.88;;
58878;SDS011;44660;42.664;23.266;2022-08-24T07:24:58;6.85;;;4.68;;
58878;SDS011;44660;42.664;23.266;2022-08-24T07:27:24;7.53;;;4.80;;
58878;SDS011;44660;42.664;23.266;2022-08-24T07:29:52;5.65;;;4.40;;
58878;SDS011;44660;42.664;23.266;2022-08-24T07:32:18;5.25;;;4.55;;
58878;SDS011;44660;42.664;23.266;2022-08-24T07:34:43;7.60;;;4.47;;
58878;SDS011;44660;42.664;23.266;2022-08-24T07:37:08;9.20;;;4.32;;
58878;SDS011;44660;42.664;23.266;2022-08-24T07:39:34;5.55;;;4.10;;
58878;SDS011;44660;42.664;23.266;2022-08-24T07:41:59;6.57;;;3.70;;
58878;SDS011;44660;42.664;23.266;2022-08-24T07:44:25;6.05;;;4.05;;
58878;SDS011;44660;42.664;23.266;2022-08-24T07:46:50;4.07;;;3.70;;
58878;SDS011;44660;42.664;23.266;2022-08-24T07:49:16;7.32;;;4.20;;
58878;SDS011;44660;42.664;23.266;2022-08-24T07:51:42;7.10;;;4.00;;
58878;SDS011;44660;42.664;23.266;2022-08-24T07:54:07;7.90;;;4.07;;
58878;SDS011;44660;42.664;23.266;2022-08-24T07:56:33;7.28;;;4.13;;
58878;SDS011;44660;42.664;23.266;2022-08-24T07:58:58;6.25;;;4.50;;
58878;SDS011;44660;42.664;23.266;2022-08-24T08:01:24;5.50;;;4.00;;
58878;SDS011;44660;42.664;23.266;2022-08-24T08:03:49;6.18;;;4.13;;
58878;SDS011;44660;42.664;23.266;2022-08-24T08:06:15;5.55;;;3.83;;
58878;SDS011;44660;42.664;23.266;2022-08-24T08:08:42;6.90;;;4.25;;
58878;SDS011;44660;42.664;23.266;2022-08-24T08:11:08;5.78;;;3.88;;
58878;SDS011;44660;42.664;23.266;2022-08-24T08:13:34;8.65;;;4.20;;
58878;SDS011;44660;42.664;23.266;2022-08-24T08:16:01;5.40;;;4.10;;
58878;SDS011;44660;42.664;23.266;2022-08-24T08:18:28;4.95;;;3.75;;
58878;SDS011;44660;42.664;23.266;2022-08-24T08:20:53;7.75;;;3.95;;
58878;SDS011;44660;42.664;23.266;2022-08-24T08:23:19;7.95;;;4.00;;
58878;SDS011;44660;42.664;23.266;2022-08-24T08:26:04;7.45;;;3.85;;
58878;SDS011;44660;42.664;23.266;2022-08-24T08:28:31;5.75;;;3.92;;
58878;SDS011;44660;42.664;23.266;2022-08-24T08:31:00;8.45;;;3.80;;
58878;SDS011;44660;42.664;23.266;2022-08-24T08:33:27;4.75;;;3.85;;
58878;SDS011;44660;42.664;23.266;2022-08-24T08:36:04;4.95;;;4.00;;
58878;SDS011;44660;42.664;23.266;2022-08-24T08:38:33;5.28;;;4.07;;
58878;SDS011;44660;42.664;23.266;2022-08-24T08:43:56;5.78;;;3.80;;
58878;SDS011;44660;42.664;23.266;2022-08-24T08:54:56;5.63;;;4.00;;
58878;SDS011;44660;42.664;23.266;2022-08-24T08:57:36;5.43;;;3.80;;
58878;SDS011;44660;42.664;23.266;2022-08-24T09:00:19;7.40;;;4.00;;
58878;SDS011;44660;42.664;23.266;2022-08-24T09:06:01;6.03;;;3.80;;
58878;SDS011;44660;42.664;23.266;2022-08-24T10:08:12;4.70;;;3.75;;
58878;SDS011;44660;42.664;23.266;2022-08-24T10:11:02;8.65;;;3.67;;
58878;SDS011;44660;42.664;23.266;2022-08-24T10:16:19;4.72;;;3.05;;
58878;SDS011;44660;42.664;23.266;2022-08-24T10:35:32;7.05;;;3.67;;
58878;SDS011;44660;42.664;23.266;2022-08-24T10:38:11;4.60;;;3.28;;
58878;SDS011;44660;42.664;23.266;2022-08-24T10:47:00;5.13;;;3.50;;
58878;SDS011;44660;42.664;23.266;2022-08-24T10:54:48;6.70;;;3.45;;
58878;SDS011;44660;42.664;23.266;2022-08-24T10:57:19;4.00;;;3.50;;
58878;SDS011;44660;42.664;23.266;2022-08-24T10:59:59;5.93;;;3.67;;
58878;SDS011;44660;42.664;23.266;2022-08-24T11:02:39;5.80;;;3.42;;
58878;SDS011;44660;42.664;23.266;2022-08-24T11:05:08;4.05;;;2.95;;
58878;SDS011;44660;42.664;23.266;2022-08-24T11:08:16;4.93;;;3.42;;
58878;SDS011;44660;42.664;23.266;2022-08-24T11:10:32;4.82;;;3.38;;
58878;SDS011;44660;42.664;23.266;2022-08-24T11:13:20;9.65;;;3.63;;
58878;SDS011;44660;42.664;23.266;2022-08-24T11:18:17;5.70;;;3.75;;
58878;SDS011;44660;42.664;23.266;2022-08-24T11:20:44;5.18;;;3.55;;
58878;SDS011;44660;42.664;23.266;2022-08-24T11:28:39;4.28;;;3.42;;
58878;SDS011;44660;42.664;23.266;2022-08-24T11:31:12;7.35;;;3.20;;
58878;SDS011;44660;42.664;23.266;2022-08-24T11:33:45;7.03;;;3.50;;
58878;SDS011;44660;42.664;23.266;2022-08-24T11:36:18;8.98;;;3.67;;
58878;SDS011;44660;42.664;23.266;2022-08-24T11:38:45;6.63;;;4.03;;
58878;SDS011;44660;42.664;23.266;2022-08-24T11:41:15;8.57;;;4.10;;
58878;SDS011;44660;42.664;23.266;2022-08-24T11:46:46;6.05;;;3.67;;
58878;SDS011;44660;42.664;23.266;2022-08-24T11:49:20;5.05;;;3.60;;
58878;SDS011;44660;42.664;23.266;2022-08-24T11:55:03;9.90;;;3.70;;
58878;SDS011;44660;42.664;23.266;2022-08-24T11:57:39;9.52;;;4.10;;
58878;SDS011;44660;42.664;23.266;2022-08-24T12:00:13;7.13;;;3.45;;
58878;SDS011;44660;42.664;23.266;2022-08-24T12:02:59;6.72;;;4.40;;
58878;SDS011;44660;42.664;23.266;2022-08-24T12:08:07;7.72;;;3.90;;
58878;SDS011;44660;42.664;23.266;2022-08-24T12:13:47;8.60;;;4.32;;
58878;SDS011;44660;42.664;23.266;2022-08-24T12:16:21;6.95;;;4.15;;
58878;SDS011;44660;42.664;23.266;2022-08-24T12:21:33;7.32;;;4.18;;
58878;SDS011;44660;42.664;23.266;2022-08-24T12:24:03;6.38;;;4.35;;
58878;SDS011;44660;42.664;23.266;2022-08-24T12:26:36;7.18;;;4.28;;
58878;SDS011;44660;42.664;23.266;2022-08-24T12:29:27;6.40;;;4.18;;
58878;SDS011;44660;42.664;23.266;2022-08-24T12:32:16;7.40;;;4.35;;
58878;SDS011;44660;42.664;23.266;2022-08-24T12:35:17;8.00;;;3.90;;
58878;SDS011;44660;42.664;23.266;2022-08-24T12:37:37;6.80;;;4.38;;
58878;SDS011;44660;42.664;23.266;2022-08-24T12:43:05;5.38;;;3.90;;
58878;SDS011;44660;42.664;23.266;2022-08-24T12:45:35;10.00;;;4.63;;
58878;SDS011;44660;42.664;23.266;2022-08-24T12:58:50;10.32;;;4.88;;
58878;SDS011;44660;42.664;23.266;2022-08-24T13:01:17;13.02;;;5.30;;
58878;SDS011;44660;42.664;23.266;2022-08-24T13:06:18;9.50;;;4.78;;
58878;SDS011;44660;42.664;23.266;2022-08-24T13:08:50;9.35;;;5.13;;
58878;SDS011;44660;42.664;23.266;2022-08-24T13:16:10;10.75;;;5.07;;
58878;SDS011;44660;42.664;23.266;2022-08-24T13:21:36;7.47;;;4.72;;
58878;SDS011;44660;42.664;23.266;2022-08-24T13:26:53;13.10;;;5.30;;
58878;SDS011;44660;42.664;23.266;2022-08-24T13:29:20;9.82;;;4.90;;
58878;SDS011;44660;42.664;23.266;2022-08-24T13:31:52;9.48;;;5.55;;
58878;SDS011;44660;42.664;23.266;2022-08-24T13:34:37;11.35;;;5.60;;
58878;SDS011;44660;42.664;23.266;2022-08-24T13:37:18;9.30;;;4.82;;
58878;SDS011;44660;42.664;23.266;2022-08-24T13:56:24;16.08;;;5.88;;
58878;SDS011;44660;42.664;23.266;2022-08-24T14:01:42;13.10;;;5.80;;
58878;SDS011;44660;42.664;23.266;2022-08-24T14:07:07;11.43;;;5.60;;
58878;SDS011;44660;42.664;23.266;2022-08-24T14:09:54;12.60;;;5.70;;
58878;SDS011;44660;42.664;23.266;2022-08-24T14:31:40;11.07;;;5.97;;
58878;SDS011;44660;42.664;23.266;2022-08-24T14:37:04;10.20;;;5.78;;
58878;SDS011;44660;42.664;23.266;2022-08-24T14:42:37;11.65;;;6.03;;
58878;SDS011;44660;42.664;23.266;2022-08-24T14:45:08;12.05;;;5.50;;
58878;SDS011;44660;42.664;23.266;2022-08-24T14:50:49;12.45;;;5.25;;
58878;SDS011;44660;42.664;23.266;2022-08-24T14:59:07;15.07;;;5.45;;
58878;SDS011;44660;42.664;23.266;2022-08-24T15:01:46;16.92;;;5.70;;
58878;SDS011;44660;42.664;23.266;2022-08-24T15:04:29;12.05;;;5.85;;
58878;SDS011;44660;42.664;23.266;2022-08-24T15:09:50;13.18;;;5.78;;
58878;SDS011;44660;42.664;23.266;2022-08-24T15:12:22;12.43;;;5.03;;
58878;SDS011;44660;42.664;23.266;2022-08-24T15:14:57;15.60;;;5.77;;
58878;SDS011;44660;42.664;23.266;2022-08-24T15:23:48;18.02;;;5.95;;
58878;SDS011;44660;42.664;23.266;2022-08-24T15:26:28;16.35;;;5.75;;
58878;SDS011;44660;42.664;23.266;2022-08-24T15:28:58;15.02;;;5.90;;
58878;SDS011;44660;42.664;23.266;2022-08-24T15:31:33;18.00;;;5.85;;
58878;SDS011;44660;42.664;23.266;2022-08-24T15:34:00;17.92;;;6.88;;
58878;SDS011;44660;42.664;23.266;2022-08-24T15:36:28;18.08;;;5.95;;
58878;SDS011;44660;42.664;23.266;2022-08-24T15:46:33;18.23;;;6.35;;
58878;SDS011;44660;42.664;23.266;2022-08-24T15:49:06;26.08;;;8.90;;
58878;SDS011;44660;42.664;23.266;2022-08-24T15:51:46;17.90;;;9.18;;
58878;SDS011;44660;42.664;23.266;2022-08-24T15:57:04;24.30;;;7.45;;
58878;SDS011;44660;42.664;23.266;2022-08-24T16:12:52;22.05;;;6.85;;
58878;SDS011;44660;42.664;23.266;2022-08-24T16:15:19;19.55;;;6.97;;
58878;SDS011;44660;42.664;23.266;2022-08-24T16:17:46;27.00;;;9.70;;
58878;SDS011;44660;42.664;23.266;2022-08-24T16:22:49;21.08;;;7.60;;
58878;SDS011;44660;42.664;23.266;2022-08-24T16:25:25;27.50;;;9.18;;
58878;SDS011;44660;42.664;23.266;2022-08-24T16:30:51;27.80;;;10.40;;
58878;SDS011;44660;42.664;23.266;2022-08-24T16:35:59;25.40;;;7.53;;
58878;SDS011;44660;42.664;23.266;2022-08-24T16:38:27;23.25;;;6.90;;
58878;SDS011;44660;42.664;23.266;2022-08-24T16:40:57;33.08;;;8.77;;
58878;SDS011;44660;42.664;23.266;2022-08-24T16:43:24;19.88;;;7.38;;
58878;SDS011;44660;42.664;23.266;2022-08-24T16:45:50;18.45;;;6.35;;
58878;SDS011;44660;42.664;23.266;2022-08-24T16:48:16;27.48;;;6.78;;
58878;SDS011;44660;42.664;23.266;2022-08-24T16:50:42;24.77;;;7.43;;
58878;SDS011;44660;42.664;23.266;2022-08-24T16:53:08;22.60;;;7.30;;
58878;SDS011;44660;42.664;23.266;2022-08-24T16:55:34;27.77;;;7.55;;
58878;SDS011;44660;42.664;23.266;2022-08-24T16:57:59;20.33;;;6.65;;
58878;SDS011;44660;42.664;23.266;2022-08-24T17:00:26;29.05;;;7.15;;
58878;SDS011;44660;42.664;23.266;2022-08-24T17:02:51;22.52;;;7.20;;
58878;SDS011;44660;42.664;23.266;2022-08-24T17:05:17;21.77;;;7.60;;
58878;SDS011;44660;42.664;23.266;2022-08-24T17:07:43;28.77;;;7.82;;
58878;SDS011;44660;42.664;23.266;2022-08-24T17:10:10;36.50;;;16.52;;
58878;SDS011;44660;42.664;23.266;2022-08-24T17:12:38;47.35;;;24.55;;
58878;SDS011;44660;42.664;23.266;2022-08-24T17:15:04;41.75;;;18.95;;
58878;SDS011;44660;42.664;23.266;2022-08-24T17:17:31;25.70;;;8.13;;
58878;SDS011;44660;42.664;23.266;2022-08-24T17:19:57;29.73;;;7.45;;
58878;SDS011;44660;42.664;23.266;2022-08-24T17:22:23;28.83;;;7.82;;
58878;SDS011;44660;42.664;23.266;2022-08-24T17:24:49;24.27;;;8.00;;
58878;SDS011;44660;42.664;23.266;2022-08-24T17:27:15;29.77;;;7.75;;
58878;SDS011;44660;42.664;23.266;2022-08-24T17:29:42;28.85;;;6.93;;
58878;SDS011;44660;42.664;23.266;2022-08-24T17:32:09;30.38;;;7.95;;
58878;SDS011;44660;42.664;23.266;2022-08-24T17:34:35;27.35;;;8.50;;
58878;SDS011;44660;42.664;23.266;2022-08-24T17:37:01;28.95;;;8.13;;
58878;SDS011;44660;42.664;23.266;2022-08-24T17:39:26;22.10;;;7.15;;
58878;SDS011;44660;42.664;23.266;2022-08-24T17:41:53;25.85;;;7.97;;
58878;SDS011;44660;42.664;23.266;2022-08-24T17:44:21;26.42;;;7.88;;
58878;SDS011;44660;42.664;23.266;2022-08-24T17:46:50;23.55;;;7.60;;
58878;SDS011;44660;42.664;23.266;2022-08-24T17:49:18;30.80;;;7.83;;
58878;SDS011;44660;42.664;23.266;2022-08-24T17:51:44;23.42;;;7.85;;
58878;SDS011;44660;42.664;23.266;2022-08-24T17:54:10;23.73;;;6.70;;
58878;SDS011;44660;42.664;23.266;2022-08-24T17:56:35;39.53;;;17.60;;
58878;SDS011;44660;42.664;23.266;2022-08-24T17:59:04;69.70;;;34.97;;
58878;SDS011;44660;42.664;23.266;2022-08-24T18:01:52;32.50;;;13.70;;
58878;SDS011;44660;42.664;23.266;2022-08-24T18:04:21;34.25;;;8.55;;
58878;SDS011;44660;42.664;23.266;2022-08-24T18:06:52;27.42;;;8.02;;
58878;SDS011;44660;42.664;23.266;2022-08-24T18:09:21;25.85;;;7.68;;
58878;SDS011;44660;42.664;23.266;2022-08-24T18:11:54;25.42;;;7.63;;
58878;SDS011;44660;42.664;23.266;2022-08-24T18:14:19;18.30;;;6.97;;
58878;SDS011;44660;42.664;23.266;2022-08-24T18:16:45;28.70;;;7.65;;
58878;SDS011;44660;42.664;23.266;2022-08-24T18:19:10;35.05;;;8.38;;
58878;SDS011;44660;42.664;23.266;2022-08-24T18:21:37;37.67;;;8.45;;
58878;SDS011;44660;42.664;23.266;2022-08-24T18:24:03;63.28;;;26.65;;
58878;SDS011;44660;42.664;23.266;2022-08-24T18:26:29;96.60;;;51.35;;
58878;SDS011;44660;42.664;23.266;2022-08-24T18:28:56;42.83;;;18.48;;
58878;SDS011;44660;42.664;23.266;2022-08-24T18:31:23;37.08;;;10.18;;
58878;SDS011;44660;42.664;23.266;2022-08-24T18:33:50;33.92;;;9.98;;
58878;SDS011;44660;42.664;23.266;2022-08-24T18:36:16;33.42;;;9.25;;
58878;SDS011;44660;42.664;23.266;2022-08-24T18:38:41;28.85;;;8.68;;
58878;SDS011;44660;42.664;23.266;2022-08-24T18:41:07;27.50;;;8.73;;
58878;SDS011;44660;42.664;23.266;2022-08-24T18:43:34;34.90;;;9.18;;
58878;SDS011;44660;42.664;23.266;2022-08-24T18:45:59;32.85;;;8.90;;
58878;SDS011;44660;42.664;23.266;2022-08-24T18:48:25;45.00;;;9.52;;
58878;SDS011;44660;42.664;23.266;2022-08-24T18:50:50;49.30;;;18.33;;
58878;SDS011;44660;42.664;23.266;2022-08-24T18:53:17;69.07;;;37.13;;